DLH4XV EDDL-EDDF
Flight info
| Callsign | DLH4XV |
|---|---|
| Flight time | N/A |
| Altitude | 23000 |
| Route | COL5Z COL T911 ROLIS ROLIS5A |
| Aircraft | A321/M-SDE3FGHIRWY/LB1 |
Departure
| Time | 2026-05-07 12:28 |
|---|---|
| Airport | Düsseldorf Airport (EDDL) |
Arrival
| Time | N/A |
|---|---|
| Airport | Frankfurt Main Airport (EDDF) |
| Time | Latitude | Longitude | Altitude | Speed | Heading |
|---|---|---|---|---|---|
| 2026-05-07 11:37 | 51.28151 | 6.76541 | 115 ft | 0 kts | 96° |
| 2026-05-07 12:07 | 51.28151 | 6.76540 | 118 ft | 0 kts | 96° |
| 2026-05-07 12:07 | 51.28152 | 6.76521 | 114 ft | 3 kts | 89° |
| 2026-05-07 12:08 | 51.28150 | 6.76489 | 116 ft | 3 kts | 72° |
| 2026-05-07 12:08 | 51.28142 | 6.76460 | 115 ft | 3 kts | 53° |
| 2026-05-07 12:08 | 51.28129 | 6.76437 | 114 ft | 3 kts | 32° |
| 2026-05-07 12:08 | 51.28111 | 6.76424 | 115 ft | 3 kts | 10° |
| 2026-05-07 12:09 | 51.28095 | 6.76422 | 114 ft | 3 kts | 343° |
| 2026-05-07 12:09 | 51.28085 | 6.76428 | 113 ft | 0 kts | 323° |
| 2026-05-07 12:09 | 51.28095 | 6.76415 | 114 ft | 3 kts | 322° |
| 2026-05-07 12:09 | 51.28111 | 6.76396 | 116 ft | 2 kts | 324° |
| 2026-05-07 12:10 | 51.28124 | 6.76383 | 115 ft | 0 kts | 328° |
| 2026-05-07 12:10 | 51.28126 | 6.76381 | 115 ft | 0 kts | 328° |
| 2026-05-07 12:11 | 51.28130 | 6.76377 | 115 ft | 1 kts | 328° |
| 2026-05-07 12:11 | 51.28135 | 6.76372 | 115 ft | 1 kts | 328° |
| 2026-05-07 12:12 | 51.28145 | 6.76362 | 117 ft | 2 kts | 328° |
| 2026-05-07 12:12 | 51.28147 | 6.76360 | 117 ft | 0 kts | 328° |
| 2026-05-07 12:12 | 51.28148 | 6.76359 | 117 ft | 0 kts | 328° |
| 2026-05-07 12:12 | 51.28152 | 6.76355 | 117 ft | 2 kts | 328° |
| 2026-05-07 12:13 | 51.28164 | 6.76343 | 117 ft | 0 kts | 328° |
| 2026-05-07 12:13 | 51.28165 | 6.76342 | 117 ft | 1 kts | 328° |
| 2026-05-07 12:14 | 51.28167 | 6.76340 | 117 ft | 0 kts | 328° |
| 2026-05-07 12:14 | 51.28171 | 6.76336 | 117 ft | 0 kts | 327° |
| 2026-05-07 12:15 | 51.28175 | 6.76332 | 115 ft | 1 kts | 327° |
| 2026-05-07 12:15 | 51.28177 | 6.76331 | 115 ft | 0 kts | 327° |
| 2026-05-07 12:15 | 51.28179 | 6.76328 | 115 ft | 0 kts | 327° |
| 2026-05-07 12:16 | 51.28181 | 6.76326 | 116 ft | 0 kts | 327° |
| 2026-05-07 12:17 | 51.28185 | 6.76322 | 115 ft | 0 kts | 327° |
| 2026-05-07 12:17 | 51.28186 | 6.76321 | 115 ft | 0 kts | 327° |
| 2026-05-07 12:18 | 51.28187 | 6.76320 | 115 ft | 0 kts | 327° |
| 2026-05-07 12:19 | 51.28189 | 6.76318 | 117 ft | 0 kts | 327° |
| 2026-05-07 12:20 | 51.28190 | 6.76317 | 117 ft | 0 kts | 327° |
| 2026-05-07 12:21 | 51.28190 | 6.76316 | 117 ft | 1 kts | 327° |
| 2026-05-07 12:21 | 51.28194 | 6.76313 | 117 ft | 0 kts | 327° |
| 2026-05-07 12:21 | 51.28199 | 6.76308 | 117 ft | 2 kts | 327° |
| 2026-05-07 12:21 | 51.28202 | 6.76305 | 116 ft | 0 kts | 327° |
| 2026-05-07 12:23 | 51.28205 | 6.76302 | 116 ft | 0 kts | 327° |
| 2026-05-07 12:23 | 51.28205 | 6.76301 | 118 ft | 0 kts | 327° |
| 2026-05-07 12:23 | 51.28218 | 6.76287 | 115 ft | 0 kts | 327° |
| 2026-05-07 12:24 | 51.28222 | 6.76283 | 116 ft | 0 kts | 327° |
| 2026-05-07 12:24 | 51.28223 | 6.76283 | 116 ft | 0 kts | 326° |
| 2026-05-07 12:24 | 51.28228 | 6.76246 | 117 ft | 10 kts | 269° |
| 2026-05-07 12:25 | 51.28181 | 6.76122 | 116 ft | 14 kts | 233° |
| 2026-05-07 12:25 | 51.28119 | 6.75989 | 115 ft | 15 kts | 233° |
| 2026-05-07 12:25 | 51.28049 | 6.75853 | 117 ft | 16 kts | 232° |
| 2026-05-07 12:25 | 51.27977 | 6.75706 | 114 ft | 17 kts | 230° |
| 2026-05-07 12:26 | 51.27971 | 6.75543 | 116 ft | 17 kts | 313° |
| 2026-05-07 12:26 | 51.28062 | 6.75473 | 115 ft | 15 kts | 2° |
| 2026-05-07 12:26 | 51.28117 | 6.75527 | 113 ft | 0 kts | 53° |
| 2026-05-07 12:27 | 51.28118 | 6.75530 | 113 ft | 1 kts | 53° |
| 2026-05-07 12:27 | 51.28184 | 6.75663 | 114 ft | 45 kts | 51° |
| 2026-05-07 12:27 | 51.28526 | 6.76382 | 115 ft | 116 kts | 52° |
| 2026-05-07 12:27 | 51.29127 | 6.77656 | 208 ft | 162 kts | 49° |
| 2026-05-07 12:28 | 51.29859 | 6.79137 | 659 ft | 180 kts | 47° |
| 2026-05-07 12:28 | 51.30634 | 6.80732 | 1375 ft | 181 kts | 50° |
| 2026-05-07 12:28 | 51.31417 | 6.82398 | 1806 ft | 195 kts | 51° |
| 2026-05-07 12:28 | 51.32272 | 6.84222 | 2016 ft | 216 kts | 51° |
| 2026-05-07 12:29 | 51.33222 | 6.86240 | 2241 ft | 239 kts | 51° |
| 2026-05-07 12:29 | 51.34236 | 6.88465 | 2778 ft | 251 kts | 53° |
| 2026-05-07 12:29 | 51.35103 | 6.90908 | 3486 ft | 258 kts | 71° |
| 2026-05-07 12:29 | 51.35215 | 6.93789 | 4236 ft | 266 kts | 97° |
| 2026-05-07 12:30 | 51.34910 | 6.96724 | 5137 ft | 268 kts | 97° |
| 2026-05-07 12:30 | 51.34704 | 6.98694 | 5724 ft | 272 kts | 97° |
| 2026-05-07 12:30 | 51.34388 | 7.01734 | 6625 ft | 274 kts | 98° |
| 2026-05-07 12:30 | 51.34084 | 7.04710 | 7394 ft | 277 kts | 98° |